Airfield :
LOGIN :

Register | Disclaimer

   EN    FR    IT 

 










Legend :    VFR   Marginal VFR   IFR   Intensive IFR   Very Intensive IFR
Visi :
Ceiling :
>= 8 km
>= 3000ft
5 to 8 km
1000 to 3000 ft
1500m to 5 km
500 to 1000 ft
800 to 1500m
200 to 500 ft
< 800m
< 200 ft
Symbols :   Thunderstorms  Fog  Heavy snow  Heavy precipitations  Wind > 20 kt
SIGMETs :     Misc.  Thunderstorms  Icing  Turbulence  Mountain Waves  Volcanic Ashes







- Airport Elevation : 1187 ft


LIBV - Gioia del Colle Bari

CURRENT METAR :
  • 202255Z VRB02KT 9000 NSC 13/10 Q1007 RMK OVC SCT090 SCT130 VIS MIN 9000 WIND THR32 26003KT WIND THR14 VRB01KT BLU

EXPIRED METARs :
  • 202155Z 22006KT 9000 NSC 13/09 Q1007 RMK OVC SCT090 BKN150 VIS MIN 9000 WIND THR32 21007KT WIND THR14 23008KT BLU
  • 202055Z 24003KT 210V270 8000 FEW035CB 13/11 Q1006 RMK OVC SCT090 BKN150 VIS MIN 7000S WIND THR32 27006KT WIND THR14 24005KT WHT

TAF TAF LIBV
Valid from the 20 at 21:00 until the 21 at 06:00 UTC


202000Z 2021/2106 23010KT 8000 SCT015 SCT050
TEMPO 2021/2024 4000 TSRA SCT010 FEW015CB BKN050
No reported NOTAMs for that airfield.
2 SIGMETs reported for the Brindisi FIR (LIBB) :
 
Severe turbulence
LIBB SIGMET 20 VALID 202300/210200 LIIB
LIBB BRINDISI FIR SEV TURB FCST WI N4307 E01505 - N4154 E01358 - N4126 E01426 - N4107 E01511 - N3854 E01742 - N3854 E01900 - N4041 E01900 - N4106 E01852 - N4112 E01841 - N4221 E01618 - N4307 E01505 FL240/360 MOV E WKN=
Severe turbulence
LIBB SIGMET 18 VALID 202130/202300 LIIB
LIBB BRINDISI FIR SEV TURB FCST WI N4124 E01419 - N4329 E01424 - N4224 E01612 - N4142 E01741 - N3852 E01758 - N3852 E01721 - N3855 E01647 - N3905 E01619 - N4114 E01507 - N4124 E01419 FL240/360 MOV E NC=



MET'MAP, your aeronautical weather chart ! - Copyright ORBIFLY December 2007 - Disclaimer

ORBIFLY MET'MAP TEAM :

Programming & Development : Alexandra Zaïnal
Concept & Development : Baudouin d'Aumeries
Co-Development & Prog : Marc-Olivier Méhu
Technical & hardware support : Manuel Goepfert

Contact : metmap@orbifly.com




SOURCES & CREDITS :

   NOAA